CheckWX is a tool to help pilots better visualize weather data.  It is not intended as a substitute for an official pre-flight weather briefing.

07:24:39 UTC

EFKS METAR
Kuusamo Airport
Kuusamo, Finland
Current

35 mins ago

EFKS 180650Z AUTO 09006KT 050V120 9999 -RA OVC028 12/09 Q1007
Observed
Jun-18 @ 06:50 UTC
Wind
  • 090° at 6 KTS
Visibility
10,000+ meters
Flight Rules
MVFR
Conditions
Light Rain
Cloud Levels
  • Overcast at 2,800' AGL
Temperature
12°C / 54°F
Dewpoint
C / 48°F
Humidity
82%
Altimeter
29.73" Hg
Pressure
1006.92 hPa
Previous

1 hour ago

EFKS 180620Z AUTO 07005KT 020V110 9999 OVC018 12/09 Q1007
Observed
Jun-18 @ 06:20 UTC
Wind
  • 070° at 5 KTS
Visibility
10,000+ meters
Flight Rules
MVFR
Cloud Levels
  • Overcast at 1,800' AGL
Temperature
12°C / 54°F
Dewpoint
C / 48°F
Humidity
82%
Altimeter
29.73" Hg
Pressure
1006.92 hPa
Previous

2 hours ago

EFKS 180550Z AUTO 08006KT 040V110 9999 VCSH OVC018 //////CB 12/09 Q1007
Observed
Jun-18 @ 05:50 UTC
Wind
  • 080° at 6 KTS
Visibility
10,000+ meters
Flight Rules
MVFR
Cloud Levels
  • Overcast at 1,800' AGL
Temperature
12°C / 54°F
Dewpoint
C / 48°F
Humidity
82%
Altimeter
29.73" Hg
Pressure
1006.92 hPa